createdAt,value
2022-10-07T00:00:53.918Z,86796.56
2022-10-07T00:03:22.686Z,86796.47
2022-10-07T00:06:16.950Z,86790.81
2022-10-07T00:08:46.924Z,86776.91
2022-10-07T00:11:24.045Z,86772.81
2022-10-07T00:13:58.885Z,86746.34
2022-10-07T00:16:37.253Z,86794.94
2022-10-07T00:19:07.581Z,86774.19
2022-10-07T00:21:36.370Z,86794.28
2022-10-07T00:24:03.834Z,86722.19
2022-10-07T00:26:35.655Z,86793.63
2022-10-07T00:29:03.476Z,86732.63
2022-10-07T00:31:33.510Z,86732.63
2022-10-07T00:34:02.904Z,86738.16
2022-10-07T00:36:35.220Z,86767.28
2022-10-07T00:39:07.664Z,86782.50
2022-10-07T00:41:40.894Z,86776.28
2022-10-07T00:44:32.321Z,86777.69
2022-10-07T00:47:01.424Z,86767.41
2022-10-07T00:49:29.599Z,86745.88
2022-10-07T00:51:58.417Z,86715.41
2022-10-07T00:54:25.644Z,86760.41
2022-10-07T00:56:52.706Z,86768.72
2022-10-07T00:59:21.391Z,86775.63
2022-10-07T01:01:48.347Z,86760.41
2022-10-07T01:04:15.755Z,86752.75
2022-10-07T01:06:43.201Z,86758.31
2022-10-07T01:09:11.687Z,86731.97
2022-10-07T01:12:00.335Z,86759.03
2022-10-07T01:14:29.536Z,86759.00
2022-10-07T01:17:23.761Z,86747.94
2022-10-07T01:20:23.998Z,86765.25
2022-10-07T01:23:19.113Z,86764.63
2022-10-07T01:25:59.051Z,86748.03
2022-10-07T01:28:31.741Z,86768.00
2022-10-07T01:31:01.853Z,86721.56
2022-10-07T01:33:32.768Z,86736.88
2022-10-07T01:36:07.631Z,86749.34
2022-10-07T01:38:37.490Z,86729.19
2022-10-07T01:41:15.274Z,86738.22
2022-10-07T01:43:45.057Z,86752.13
2022-10-07T01:46:19.595Z,86727.16
2022-10-07T01:48:47.722Z,86729.31
2022-10-07T01:51:17.455Z,86717.53
2022-10-07T01:53:53.434Z,86750.16
2022-10-07T01:56:45.750Z,86738.22
2022-10-07T01:59:50.691Z,86752.06
2022-10-07T02:02:40.447Z,86743.75
2022-10-07T02:05:09.364Z,86749.28
2022-10-07T02:07:45.691Z,86752.06
2022-10-07T02:10:17.952Z,86739.63
2022-10-07T02:13:07.095Z,86738.22
2022-10-07T02:16:02.869Z,86738.94
2022-10-07T02:18:33.290Z,86703.53
2022-10-07T02:21:04.166Z,86710.53
2022-10-07T02:23:34.495Z,86735.50
2022-10-07T02:26:03.899Z,86736.22
2022-10-07T02:28:32.915Z,86740.41
2022-10-07T02:31:04.501Z,86743.13
2022-10-07T02:33:34.658Z,86730.00
2022-10-07T02:36:10.840Z,86701.56
2022-10-07T02:38:39.874Z,86717.50
2022-10-07T02:41:33.537Z,86749.41
2022-10-07T02:44:26.080Z,86738.38
2022-10-07T02:47:05.211Z,86727.25
2022-10-07T02:49:38.588Z,86748.09
2022-10-07T02:52:10.137Z,86721.72
2022-10-07T02:54:42.767Z,86746.69
2022-10-07T02:57:13.685Z,86722.47
2022-10-07T02:59:42.581Z,86704.50
2022-10-07T03:02:16.948Z,86744.00
2022-10-07T03:04:44.518Z,86738.44
2022-10-07T03:07:13.271Z,86730.13
2022-10-07T03:09:41.955Z,86731.53
2022-10-07T03:12:10.781Z,86751.56
2022-10-07T03:14:37.946Z,86714.16
2022-10-07T03:17:07.152Z,86748.06
2022-10-07T03:19:34.422Z,86747.34
2022-10-07T03:22:02.478Z,86747.34
2022-10-07T03:24:32.318Z,86725.06
2022-10-07T03:26:59.237Z,86743.78
2022-10-07T03:29:26.697Z,86706.38
2022-10-07T03:31:55.554Z,86745.13
2022-10-07T03:34:23.318Z,86729.16
2022-10-07T03:36:50.619Z,86716.72
2022-10-07T03:39:17.730Z,86747.88
2022-10-07T03:41:44.651Z,86715.94
2022-10-07T03:44:11.639Z,86706.22
2022-10-07T03:46:38.998Z,86706.88
2022-10-07T03:49:05.926Z,86741.53
2022-10-07T03:51:33.266Z,86736.03
2022-10-07T03:54:01.479Z,86704.81
2022-10-07T03:56:31.841Z,86731.19
2022-10-07T03:59:00.237Z,86741.63
2022-10-07T04:01:27.292Z,86720.03
2022-10-07T04:03:59.894Z,86707.63
2022-10-07T04:06:29.584Z,86744.97
2022-10-07T04:08:57.470Z,86733.28
2022-10-07T04:11:24.516Z,86708.34
2022-10-07T04:13:55.729Z,86710.38
2022-10-07T04:16:25.456Z,86716.66
2022-10-07T04:18:55.434Z,86700.63
2022-10-07T04:21:23.863Z,86723.56
2022-10-07T04:23:50.980Z,86719.41
2022-10-07T04:26:18.077Z,86729.78
2022-10-07T04:28:49.328Z,86749.19
2022-10-07T04:31:21.608Z,86752.66
2022-10-07T04:33:54.420Z,86751.91
2022-10-07T04:36:27.419Z,86752.63
2022-10-07T04:39:15.112Z,86732.56
2022-10-07T04:41:51.252Z,86743.56
2022-10-07T04:44:22.447Z,86736.53
2022-10-07T04:46:56.963Z,86728.94
2022-10-07T04:49:26.685Z,86738.00
2022-10-07T04:51:54.822Z,86757.97
2022-10-07T04:54:25.041Z,86755.31
2022-10-07T04:56:54.908Z,86751.19
2022-10-07T04:59:27.938Z,86757.44
2022-10-07T05:01:57.104Z,86768.56
2022-10-07T05:04:24.794Z,86751.31
2022-10-07T05:06:53.216Z,86756.06
2022-10-07T05:09:20.498Z,86686.59
2022-10-07T05:11:49.187Z,86767.06
2022-10-07T05:14:21.675Z,86731.69
2022-10-07T05:16:51.245Z,86763.63
2022-10-07T05:19:20.770Z,86754.56
2022-10-07T05:21:48.309Z,86768.38
2022-10-07T05:24:15.387Z,86769.84
2022-10-07T05:26:42.923Z,86775.47
2022-10-07T05:29:10.060Z,86740.09
2022-10-07T05:31:44.376Z,86783.84
2022-10-07T05:34:13.615Z,86774.16
2022-10-07T05:36:41.351Z,86770.03
2022-10-07T05:39:09.732Z,86763.00
2022-10-07T05:41:51.962Z,86765.84
2022-10-07T05:44:24.338Z,86709.78
2022-10-07T05:46:53.371Z,86783.34
2022-10-07T05:49:21.524Z,86768.78
2022-10-07T05:51:49.317Z,86791.03
2022-10-07T05:54:17.113Z,86799.38
2022-10-07T05:56:45.326Z,86766.78
2022-10-07T05:59:14.059Z,86795.25
2022-10-07T06:01:43.311Z,86801.56
2022-10-07T06:04:15.734Z,86783.53
2022-10-07T06:06:47.152Z,86796.72
2022-10-07T06:09:50.023Z,86794.69
2022-10-07T06:12:36.655Z,86780.84
2022-10-07T06:15:09.815Z,86782.22
2022-10-07T06:17:45.850Z,86789.16
2022-10-07T06:20:17.119Z,86794.72
2022-10-07T06:22:45.389Z,86719.81
2022-10-07T06:25:14.519Z,86766.31
2022-10-07T06:27:42.384Z,86801.00
2022-10-07T06:30:10.088Z,86788.50
2022-10-07T06:32:37.039Z,86806.53
2022-10-07T06:35:05.060Z,86799.59
2022-10-07T06:37:33.274Z,86785.72
2022-10-07T06:40:01.273Z,86802.38
2022-10-07T06:42:31.906Z,86769.78
2022-10-07T06:45:17.432Z,86813.47
2022-10-07T06:47:45.374Z,86804.44
2022-10-07T06:50:13.679Z,86820.41
2022-10-07T06:52:43.476Z,86828.72
2022-10-07T06:55:11.727Z,86794.75
2022-10-07T06:57:46.747Z,86821.78
2022-10-07T07:00:17.506Z,86827.34
2022-10-07T07:02:45.359Z,86823.19
2022-10-07T07:05:14.727Z,86807.94
2022-10-07T07:07:42.989Z,86805.88
2022-10-07T07:10:10.314Z,86824.59
2022-10-07T07:12:41.084Z,86785.78
2022-10-07T07:15:09.699Z,86788.53
2022-10-07T07:17:37.449Z,86817.63
2022-10-07T07:20:05.761Z,86822.47
2022-10-07T07:22:32.824Z,86810.69
2022-10-07T07:24:59.903Z,86809.31
2022-10-07T07:27:27.226Z,86787.09
2022-10-07T07:29:54.151Z,86782.91
2022-10-07T07:32:21.612Z,86801.56
2022-10-07T07:34:48.565Z,86822.34
2022-10-07T07:37:20.514Z,86817.41
2022-10-07T07:39:51.284Z,86816.66
2022-10-07T07:42:19.147Z,86804.13
2022-10-07T07:44:47.032Z,86756.34
2022-10-07T07:47:17.182Z,86770.13
2022-10-07T07:49:45.899Z,86785.91
2022-10-07T07:52:17.952Z,86795.56
2022-10-07T07:54:48.479Z,86797.53
2022-10-07T07:57:15.588Z,86805.81
2022-10-07T07:59:42.800Z,86802.94
2022-10-07T08:02:15.318Z,86787.59
2022-10-07T08:04:46.473Z,86795.13
2022-10-07T08:07:14.114Z,86794.44
2022-10-07T08:09:44.101Z,86808.91
2022-10-07T08:12:12.034Z,86795.56
2022-10-07T08:14:40.116Z,86763.09
2022-10-07T08:17:07.422Z,86785.75
2022-10-07T08:19:35.077Z,86807.16
2022-10-07T08:22:04.178Z,86805.00
2022-10-07T08:24:31.947Z,86784.16
2022-10-07T08:27:01.786Z,86763.25
2022-10-07T08:29:30.237Z,86799.13
2022-10-07T08:31:57.492Z,86792.06
2022-10-07T08:34:24.419Z,86797.50
2022-10-07T08:36:51.972Z,86798.75
2022-10-07T08:39:19.006Z,86803.56
2022-10-07T08:42:13.338Z,86774.34
2022-10-07T08:44:42.994Z,86798.44
2022-10-07T08:47:38.711Z,86803.16
2022-10-07T08:50:16.683Z,86813.44
2022-10-07T08:52:51.413Z,86799.47
2022-10-07T08:55:24.482Z,86798.59
2022-10-07T08:58:21.144Z,86793.56
2022-10-07T09:00:54.590Z,86796.25
2022-10-07T09:03:31.214Z,86788.41
2022-10-07T09:05:59.702Z,86782.06
2022-10-07T09:08:34.312Z,86763.19
2022-10-07T09:11:16.053Z,86791.38
2022-10-07T09:13:48.172Z,86784.31
2022-10-07T09:16:26.677Z,86777.09
2022-10-07T09:18:56.964Z,86779.72
2022-10-07T09:21:29.277Z,86775.97
2022-10-07T09:24:01.707Z,86776.50
2022-10-07T09:26:28.609Z,86768.63
2022-10-07T09:28:55.727Z,86762.19
2022-10-07T09:31:25.134Z,86737.28
2022-10-07T09:33:54.208Z,86748.06
2022-10-07T09:36:21.463Z,86757.56
2022-10-07T09:38:52.516Z,86754.63
2022-10-07T09:41:35.451Z,86752.97
2022-10-07T09:44:17.515Z,86750.78
2022-10-07T09:46:49.446Z,86761.25
2022-10-07T09:49:28.288Z,86747.03
2022-10-07T09:52:15.971Z,86755.25
2022-10-07T09:54:45.801Z,86745.44
2022-10-07T09:57:36.464Z,86734.56
2022-10-07T10:00:12.463Z,86752.25
2022-10-07T10:03:07.021Z,86730.16
2022-10-07T10:05:39.516Z,86751.50
2022-10-07T10:08:18.572Z,86738.03
2022-10-07T10:10:56.966Z,86722.81
2022-10-07T10:13:36.930Z,86721.22
2022-10-07T10:16:24.932Z,86703.91
2022-10-07T10:19:02.513Z,86737.50
2022-10-07T10:21:41.097Z,86708.34
2022-10-07T10:24:15.108Z,86712.28
2022-10-07T10:27:01.659Z,86724.66
2022-10-07T10:29:54.699Z,86721.75
2022-10-07T10:32:37.031Z,86718.13
2022-10-07T10:35:20.280Z,86708.19
2022-10-07T10:38:04.597Z,86713.63
2022-10-07T10:40:42.202Z,86702.38
2022-10-07T10:43:35.391Z,86709.94
2022-10-07T10:46:17.600Z,86711.25
2022-10-07T10:49:07.070Z,86707.53
2022-10-07T10:52:04.114Z,86703.28
2022-10-07T10:54:43.351Z,86689.94
2022-10-07T10:58:00.080Z,86677.75
2022-10-07T11:00:42.387Z,86699.72
2022-10-07T11:03:18.677Z,86689.88
2022-10-07T11:05:47.970Z,86673.34
2022-10-07T11:08:17.962Z,86697.25
2022-10-07T11:10:48.764Z,86699.41
2022-10-07T11:13:21.514Z,86701.41
2022-10-07T11:15:59.416Z,86661.34
2022-10-07T11:18:33.019Z,86672.78
2022-10-07T11:21:01.644Z,86691.38
2022-10-07T11:23:51.826Z,86686.56
2022-10-07T11:26:34.453Z,86682.28
2022-10-07T11:29:25.031Z,86683.56
2022-10-07T11:32:06.895Z,86652.25
2022-10-07T11:34:40.656Z,86681.72
2022-10-07T11:37:16.165Z,86665.63
2022-10-07T11:39:43.277Z,86634.72
2022-10-07T11:42:16.678Z,86668.75
2022-10-07T11:44:43.593Z,86665.91
2022-10-07T11:47:17.300Z,86639.75
2022-10-07T11:50:14.258Z,86615.38
2022-10-07T11:52:46.759Z,86648.19
2022-10-07T11:55:27.647Z,86639.13
2022-10-07T11:58:00.568Z,86662.34
2022-10-07T12:00:31.845Z,86633.97
2022-10-07T12:03:33.823Z,86656.00
2022-10-07T12:06:13.990Z,86649.38
2022-10-07T12:08:43.478Z,86633.06
2022-10-07T12:11:13.783Z,86649.28
2022-10-07T12:13:52.086Z,86649.13
2022-10-07T12:16:28.307Z,86653.03
2022-10-07T12:19:07.347Z,86640.88
2022-10-07T12:22:12.848Z,86626.31
2022-10-07T12:24:45.976Z,86637.44
2022-10-07T12:27:28.778Z,86643.34
2022-10-07T12:30:00.380Z,86644.56
2022-10-07T12:32:46.492Z,86655.06
2022-10-07T12:35:35.065Z,86637.00
2022-10-07T12:38:24.664Z,86643.09
2022-10-07T12:41:04.836Z,86617.84
2022-10-07T12:43:45.950Z,86646.56
2022-10-07T12:46:17.163Z,86638.03
2022-10-07T12:49:07.592Z,86637.75
2022-10-07T12:51:39.621Z,86618.28
2022-10-07T12:54:20.612Z,86614.94
2022-10-07T12:56:49.497Z,86634.78
2022-10-07T12:59:54.755Z,86622.41
2022-10-07T13:02:36.721Z,86632.56
2022-10-07T13:05:31.785Z,86632.00
2022-10-07T13:08:33.067Z,86626.66
2022-10-07T13:11:09.029Z,86630.63
2022-10-07T13:13:52.264Z,86627.16
2022-10-07T13:16:42.121Z,86631.88
2022-10-07T13:19:32.677Z,86630.31
2022-10-07T13:22:15.165Z,86616.25
2022-10-07T13:24:53.540Z,86615.69
2022-10-07T13:27:27.869Z,86624.69
2022-10-07T13:29:57.054Z,86621.78
2022-10-07T13:32:33.051Z,86625.28
2022-10-07T13:35:19.797Z,86624.59
2022-10-07T13:37:47.278Z,86619.88
2022-10-07T13:40:40.689Z,86612.59
2022-10-07T13:43:09.104Z,86603.06
2022-10-07T13:45:43.774Z,86582.31
2022-10-07T13:48:21.356Z,86611.81
2022-10-07T13:50:51.983Z,86621.28
2022-10-07T13:53:30.718Z,86618.59
2022-10-07T13:56:16.419Z,86616.75
2022-10-07T13:58:43.837Z,86606.22
2022-10-07T14:05:05.218Z,86611.34
2022-10-07T14:07:32.326Z,86614.69
2022-10-07T14:09:59.296Z,86616.84
2022-10-07T14:12:43.235Z,86617.50
2022-10-07T14:15:23.269Z,86614.53
2022-10-07T14:18:13.371Z,86620.41
2022-10-07T14:20:51.946Z,86582.88
2022-10-07T14:23:31.425Z,86614.09
2022-10-07T14:25:59.783Z,86621.50
2022-10-07T14:28:28.636Z,86622.59
2022-10-07T14:31:38.851Z,86624.19
2022-10-07T14:34:35.647Z,86619.84
2022-10-07T14:37:27.182Z,86634.22
2022-10-07T14:39:56.746Z,86628.28
2022-10-07T14:42:29.686Z,86632.06
2022-10-07T14:44:57.680Z,86605.53
2022-10-07T14:47:28.236Z,86643.69
2022-10-07T14:49:57.159Z,86607.31
2022-10-07T14:52:32.297Z,86636.63
2022-10-07T14:55:03.300Z,86633.28
2022-10-07T14:57:30.407Z,86631.88
2022-10-07T14:59:57.385Z,86632.34
2022-10-07T15:02:24.359Z,86629.56
2022-10-07T15:04:51.481Z,86629.16
2022-10-07T15:07:18.525Z,86630.63
2022-10-07T15:09:46.129Z,86636.25
2022-10-07T15:12:15.154Z,86620.47
2022-10-07T15:14:42.605Z,86635.13
2022-10-07T15:17:12.239Z,86642.78
2022-10-07T15:19:39.338Z,86637.31
2022-10-07T15:22:06.853Z,86620.22
2022-10-07T15:24:34.375Z,86640.31
2022-10-07T15:27:01.607Z,86615.59
2022-10-07T15:29:28.659Z,86598.19
2022-10-07T15:31:55.747Z,86635.63
2022-10-07T15:34:22.930Z,86603.91
2022-10-07T15:36:50.277Z,86608.00
2022-10-07T15:39:17.216Z,86619.19
2022-10-07T15:41:44.433Z,86640.00
2022-10-07T15:44:16.301Z,86644.31
2022-10-07T15:46:46.074Z,86640.19
2022-10-07T15:49:13.853Z,86623.81
2022-10-07T15:51:41.002Z,86596.41
2022-10-07T15:54:09.537Z,86620.00
2022-10-07T15:56:36.625Z,86602.97
2022-10-07T15:59:04.077Z,86620.19
2022-10-07T16:01:34.057Z,86628.75
2022-10-07T16:04:02.809Z,86619.69
2022-10-07T16:06:33.034Z,86647.94
2022-10-07T16:09:00.922Z,86656.38
2022-10-07T16:11:29.542Z,86651.19
2022-10-07T16:13:56.524Z,86622.09
2022-10-07T16:16:26.082Z,86651.72
2022-10-07T16:18:54.913Z,86653.78
2022-10-07T16:21:29.351Z,86652.41
2022-10-07T16:24:05.747Z,86630.28
2022-10-07T16:26:35.420Z,86667.00
2022-10-07T16:29:23.012Z,86652.41
2022-10-07T16:31:54.620Z,86632.47
2022-10-07T16:34:24.707Z,86662.19
2022-10-07T16:36:51.737Z,86627.91
2022-10-07T16:39:20.892Z,86645.06
2022-10-07T16:41:49.343Z,86672.19
2022-10-07T16:44:16.400Z,86675.66
2022-10-07T16:46:44.207Z,86670.78
2022-10-07T16:49:14.685Z,86673.66
2022-10-07T16:51:41.965Z,86662.88
2022-10-07T16:54:15.893Z,86661.56
2022-10-07T16:56:49.187Z,86695.53
2022-10-07T16:59:23.238Z,86657.47
2022-10-07T17:01:56.611Z,86664.28
2022-10-07T17:04:25.067Z,86683.66
2022-10-07T17:06:52.916Z,86673.28
2022-10-07T17:09:21.679Z,86658.91
2022-10-07T17:11:48.795Z,86635.97
2022-10-07T17:14:21.249Z,86644.03
2022-10-07T17:16:55.415Z,86671.72
2022-10-07T17:19:24.835Z,86678.72
2022-10-07T17:21:53.300Z,86680.22
2022-10-07T17:24:23.147Z,86675.31
2022-10-07T17:26:50.667Z,86670.56
2022-10-07T17:29:20.041Z,86671.19
2022-10-07T17:31:50.646Z,86649.84
2022-10-07T17:34:20.107Z,86680.25
2022-10-07T17:36:48.207Z,86675.44
2022-10-07T17:39:15.928Z,86683.78
2022-10-07T17:41:42.930Z,86676.88
2022-10-07T17:44:15.674Z,86634.72
2022-10-07T17:46:42.882Z,86626.50
2022-10-07T17:49:13.598Z,86664.03
2022-10-07T17:51:43.343Z,86677.94
2022-10-07T17:54:12.632Z,86649.81
2022-10-07T17:56:39.812Z,86650.44
2022-10-07T17:59:06.945Z,86680.84
2022-10-07T18:01:35.260Z,86667.03
2022-10-07T18:04:07.919Z,86678.00
2022-10-07T18:06:36.864Z,86678.09
2022-10-07T18:09:09.273Z,86641.47
2022-10-07T18:11:55.049Z,86672.63
2022-10-07T18:14:40.770Z,86668.56
2022-10-07T18:17:09.248Z,86669.31
2022-10-07T18:19:36.548Z,86688.09
2022-10-07T18:22:03.786Z,86666.63
2022-10-07T18:24:31.124Z,86656.25
2022-10-07T18:27:00.246Z,86681.78
2022-10-07T18:29:28.514Z,86681.16
2022-10-07T18:31:56.260Z,86690.88
2022-10-07T18:34:23.915Z,86666.00
2022-10-07T18:36:55.997Z,86689.50
2022-10-07T18:39:24.684Z,86688.13
2022-10-07T18:41:51.801Z,86690.25
2022-10-07T18:44:18.893Z,86646.66
2022-10-07T18:46:46.070Z,86676.34
2022-10-07T18:49:14.303Z,86686.78
2022-10-07T18:51:41.512Z,86675.69
2022-10-07T18:54:09.992Z,86642.56
2022-10-07T18:56:40.756Z,86678.47
2022-10-07T18:59:08.320Z,86681.22
2022-10-07T19:01:35.584Z,86650.91
2022-10-07T19:04:03.855Z,86685.47
2022-10-07T19:06:33.498Z,86682.69
2022-10-07T19:09:02.815Z,86675.81
2022-10-07T19:11:34.154Z,86680.72
2022-10-07T19:14:01.674Z,86656.50
2022-10-07T19:16:36.464Z,86694.59
2022-10-07T19:19:07.701Z,86689.75
2022-10-07T19:21:35.752Z,86669.03
2022-10-07T19:24:04.572Z,86682.84
2022-10-07T19:26:37.199Z,86673.25
2022-10-07T19:29:05.981Z,86686.34
2022-10-07T19:31:35.740Z,86635.22
2022-10-07T19:34:12.992Z,86622.75
2022-10-07T19:36:42.655Z,86688.44
2022-10-07T19:39:10.882Z,86693.28
2022-10-07T19:41:37.906Z,86694.03
2022-10-07T19:44:05.750Z,86692.59
2022-10-07T19:46:33.989Z,86664.97
2022-10-07T19:49:02.560Z,86691.94
2022-10-07T19:51:31.393Z,86651.84
2022-10-07T19:54:00.305Z,86680.16
2022-10-07T19:56:29.378Z,86681.53
2022-10-07T19:58:58.865Z,86664.94
2022-10-07T20:01:29.448Z,86684.28
2022-10-07T20:03:59.948Z,86660.84
2022-10-07T20:06:27.925Z,86655.28
2022-10-07T20:08:55.970Z,86685.72
2022-10-07T20:11:23.401Z,86651.13
2022-10-07T20:13:51.908Z,86685.75
2022-10-07T20:16:21.248Z,86673.34
2022-10-07T20:18:50.487Z,86690.75
2022-10-07T20:21:23.997Z,86685.84
2022-10-07T20:23:53.928Z,86672.06
2022-10-07T20:26:29.854Z,86685.84
2022-10-07T20:28:59.711Z,86666.50
2022-10-07T20:31:29.686Z,86682.44
2022-10-07T20:33:58.140Z,86677.59
2022-10-07T20:36:31.425Z,86677.63
2022-10-07T20:39:25.491Z,86670.00
2022-10-07T20:42:12.084Z,86670.00
2022-10-07T20:44:39.751Z,86645.81
2022-10-07T20:47:08.842Z,86655.50
2022-10-07T20:49:37.546Z,86670.03
2022-10-07T20:52:07.189Z,86640.28
2022-10-07T20:54:34.250Z,86668.00
2022-10-07T20:57:01.159Z,86630.63
2022-10-07T20:59:30.388Z,86663.16
2022-10-07T21:04:52.499Z,86661.06
2022-10-07T21:07:20.221Z,86657.59
2022-10-07T21:09:48.110Z,86641.00
2022-10-07T21:12:18.202Z,86626.47
2022-10-07T21:14:47.960Z,86652.78
2022-10-07T21:17:15.381Z,86650.03
2022-10-07T21:19:42.494Z,86650.69
2022-10-07T21:22:09.633Z,86652.09
2022-10-07T21:24:36.672Z,86645.84
2022-10-07T21:27:06.115Z,86614.06
2022-10-07T21:29:37.518Z,86634.09
2022-10-07T21:32:07.680Z,86647.28
2022-10-07T21:34:34.718Z,86639.66
2022-10-07T21:37:01.774Z,86647.28
2022-10-07T21:39:29.130Z,86648.66
2022-10-07T21:41:58.084Z,86643.81
2022-10-07T21:44:27.000Z,86603.69
2022-10-07T21:46:54.010Z,86640.31
2022-10-07T21:49:20.954Z,86597.44
2022-10-07T21:51:48.160Z,86603.66
2022-10-07T21:54:15.612Z,86616.81
2022-10-07T21:56:46.201Z,86634.13
2022-10-07T21:59:14.438Z,86607.81
2022-10-07T22:01:42.707Z,86609.88
2022-10-07T22:04:16.060Z,86600.19
2022-10-07T22:07:02.096Z,86625.09
2022-10-07T22:09:29.502Z,86619.56
2022-10-07T22:11:57.238Z,86616.81
2022-10-07T22:14:24.233Z,86549.00
2022-10-07T22:16:51.231Z,86589.13
2022-10-07T22:19:18.189Z,86584.28
2022-10-07T22:21:46.067Z,86582.22
2022-10-07T22:24:14.160Z,86598.06
2022-10-07T22:26:46.986Z,86607.09
2022-10-07T22:29:16.309Z,86604.31
2022-10-07T22:31:43.898Z,86600.19
2022-10-07T22:34:31.753Z,86607.13
2022-10-07T22:36:58.793Z,86595.31
2022-10-07T22:39:26.890Z,86600.88
2022-10-07T22:41:54.097Z,86576.66
2022-10-07T22:44:21.071Z,86571.81
2022-10-07T22:46:48.227Z,86594.59
2022-10-07T22:49:15.351Z,86595.97
2022-10-07T22:51:43.205Z,86558.66
2022-10-07T22:54:14.497Z,86551.72
2022-10-07T22:56:41.423Z,86575.16
2022-10-07T22:59:08.832Z,86584.88
2022-10-07T23:01:36.752Z,86586.25
2022-10-07T23:04:04.932Z,86560.69
2022-10-07T23:06:34.760Z,86533.03
2022-10-07T23:09:02.805Z,86587.66
2022-10-07T23:11:30.558Z,86543.41
2022-10-07T23:13:57.644Z,86557.19
2022-10-07T23:16:28.107Z,86575.13
2022-10-07T23:18:55.638Z,86568.22
2022-10-07T23:21:28.215Z,86566.13
2022-10-07T23:24:05.971Z,86553.00
2022-10-07T23:26:34.398Z,86568.16
2022-10-07T23:29:01.819Z,86523.97
2022-10-07T23:31:31.794Z,86557.06
2022-10-07T23:34:00.636Z,86574.44
2022-10-07T23:36:28.336Z,86539.84
2022-10-07T23:38:55.632Z,86546.03
2022-10-07T23:41:25.248Z,86563.97
2022-10-07T23:43:54.223Z,86567.47
2022-10-07T23:46:23.522Z,86504.63
2022-10-07T23:48:51.124Z,86537.75
2022-10-07T23:51:20.743Z,86537.75
2022-10-07T23:53:48.750Z,86556.41
2022-10-07T23:56:15.967Z,86540.50
2022-10-07T23:58:42.972Z,86530.09
